Terminal Aerodrome Forecast
Issued by NWS Louisville, KY

Current Version | Previous Version | Text Only | Print | Product List | Glossary On
Versions: 1 2 3 4 5 6 7 8 9 10 11 12 13 14 15 16 17 18 19 20 21 22
000
FTUS43 KLMK 232325
TAFSDF
TAF
KSDF 232325Z 2400/2506 26012KT P6SM VCSH OVC027
     FM240300 28008KT P6SM OVC025
     FM240900 28007KT P6SM BKN018
     FM241900 28012KT P6SM BKN030
     FM242300 28009KT P6SM SCT070=

USA.gov is the U.S. government's official web portal to all federal, state and local government web resources and services.